Time;durP1;ratioP1;P1;durP2;ratioP2;P2;SDS_P1;SDS_P2;PMS_P1;PMS_P2;Temp;Humidity;BMP_temperature;BMP_pressure;BME280_temperature;BME280_humidity;BME280_pressure;Samples;Min_cycle;Max_cycle;Signal;HPM_P1;HPM_P2
2023/08/25 00:01:22;;;;;;;9.48;6.07;;;;;;;18.96;100.00;100847.47;5092324;28;20028;-69
2023/08/25 00:03:48;;;;;;;13.68;7.60;;;;;;;18.97;100.00;100859.94;5092967;28;20054;-70
2023/08/25 00:06:13;;;;;;;13.23;7.47;;;;;;;18.95;100.00;100852.09;5091016;28;20051;-69
2023/08/25 00:08:39;;;;;;;12.93;8.13;;;;;;;18.94;100.00;100860.44;5092228;28;20036;-70
2023/08/25 00:11:04;;;;;;;11.38;7.43;;;;;;;18.82;100.00;100844.34;5091980;28;20035;-70
2023/08/25 00:13:30;;;;;;;11.43;7.25;;;;;;;18.87;100.00;100854.41;5090672;28;20383;-70
2023/08/25 00:15:55;;;;;;;14.27;8.05;;;;;;;18.86;100.00;100866.28;5091934;28;20032;-70
2023/08/25 00:18:20;;;;;;;14.70;8.82;;;;;;;18.81;100.00;100867.88;5091865;28;20035;-70
2023/08/25 00:20:48;;;;;;;12.80;7.30;;;;;;;18.79;100.00;100875.41;5091829;28;20048;-70
2023/08/25 00:23:14;;;;;;;11.90;7.25;;;;;;;18.75;100.00;100859.94;5090357;28;20024;-70
2023/08/25 00:25:39;;;;;;;11.93;8.27;;;;;;;18.73;100.00;100862.88;5091797;28;20021;-70
2023/08/25 00:28:05;;;;;;;14.38;8.65;;;;;;;18.74;100.00;100861.78;5091578;28;20394;-69
2023/08/25 00:30:30;;;;;;;18.50;10.02;;;;;;;18.68;100.00;100849.28;5072397;28;20032;-70
2023/08/25 00:32:55;;;;;;;14.52;8.73;;;;;;;18.74;100.00;100864.50;5069857;28;20032;-70
2023/08/25 00:35:23;;;;;;;16.95;9.30;;;;;;;18.74;100.00;100869.09;5091300;28;20036;-69
2023/08/25 00:37:48;;;;;;;14.02;8.13;;;;;;;18.69;100.00;100867.13;5091409;28;20024;-69
2023/08/25 00:40:13;;;;;;;15.80;7.80;;;;;;;18.67;100.00;100877.38;5091725;28;20070;-69
2023/08/25 00:42:39;;;;;;;14.00;8.77;;;;;;;18.67;100.00;100880.06;5091485;28;20028;-69
2023/08/25 00:45:05;;;;;;;14.27;9.13;;;;;;;18.65;100.00;100874.09;5091423;28;20425;-69
2023/08/25 00:47:30;;;;;;;14.10;8.60;;;;;;;18.58;100.00;100870.78;5091279;28;20548;-69
2023/08/25 00:49:56;;;;;;;12.15;6.78;;;;;;;18.55;100.00;100877.50;5091254;28;20032;-69
2023/08/25 00:52:22;;;;;;;15.20;8.18;;;;;;;18.53;100.00;100873.41;5089776;28;20046;-69
2023/08/25 00:54:51;;;;;;;17.30;10.25;;;;;;;18.49;100.00;100875.75;5091104;28;20085;-69
2023/08/25 00:57:16;;;;;;;17.63;9.18;;;;;;;18.47;100.00;100868.97;5089631;28;20115;-69
2023/08/25 00:59:42;;;;;;;14.15;8.80;;;;;;;18.40;100.00;100869.97;5091186;28;20111;-69
2023/08/25 01:02:07;;;;;;;14.25;9.15;;;;;;;18.31;100.00;100855.28;5090895;28;20089;-70
2023/08/25 01:04:33;;;;;;;12.75;8.02;;;;;;;18.40;100.00;100869.97;5090787;28;20060;-70
2023/08/25 01:06:58;;;;;;;13.45;7.75;;;;;;;18.35;100.00;100861.00;5090702;28;20055;-69
2023/08/25 01:09:25;;;;;;;12.88;7.55;;;;;;;18.30;100.00;100867.13;5090898;28;20032;-70
2023/08/25 01:12:27;;;;;;;14.02;8.55;;;;;;;18.37;100.00;100867.78;5083927;28;20040;-70
2023/08/25 01:15:04;;;;;;;12.82;7.57;;;;;;;18.37;100.00;100858.88;5090717;28;20505;-70
2023/08/25 01:17:44;;;;;;;15.88;8.48;;;;;;;18.37;100.00;100858.88;5090706;28;20032;-69
2023/08/25 01:20:13;;;;;;;12.85;7.43;;;;;;;18.32;100.00;100851.50;5071414;28;20119;-70
2023/08/25 01:22:58;;;;;;;13.40;8.05;;;;;;;18.36;100.00;100855.31;5090280;28;20028;-70
2023/08/25 01:25:24;;;;;;;13.45;8.30;;;;;;;18.34;100.00;100851.25;5090547;28;20043;-69
2023/08/25 01:27:52;;;;;;;12.35;7.60;;;;;;;18.31;100.00;100849.88;5090677;28;20046;-70
2023/08/25 01:30:19;;;;;;;12.98;7.85;;;;;;;18.26;100.00;100846.25;5090354;28;20054;-70
2023/08/25 01:32:45;;;;;;;19.50;8.40;;;;;;;18.28;100.00;100849.53;5090364;28;20308;-70
2023/08/25 01:35:15;;;;;;;13.52;8.43;;;;;;;18.22;100.00;100855.94;5090423;28;20417;-70
2023/08/25 01:37:59;;;;;;;12.10;7.72;;;;;;;18.20;100.00;100855.38;5090233;28;20032;-70
2023/08/25 01:40:37;;;;;;;15.45;9.30;;;;;;;18.20;100.00;100863.47;5090411;28;20020;-70
2023/08/25 01:43:09;;;;;;;13.82;7.80;;;;;;;18.20;100.00;100852.66;5090230;28;20089;-70
2023/08/25 01:45:34;;;;;;;14.13;7.80;;;;;;;18.18;100.00;100850.19;5090038;28;20024;-70
2023/08/25 01:48:01;;;;;;;14.52;8.50;;;;;;;18.22;100.00;100843.25;5090093;28;20732;-70
2023/08/25 01:50:27;;;;;;;16.58;8.82;;;;;;;18.18;100.00;100852.91;5088757;28;20031;-69
2023/08/25 01:52:53;;;;;;;17.15;8.57;;;;;;;18.15;100.00;100839.91;5089885;28;20563;-69
2023/08/25 01:55:18;;;;;;;13.05;8.07;;;;;;;18.14;100.00;100839.09;5090065;28;20077;-69
2023/08/25 01:57:43;;;;;;;15.60;9.15;;;;;;;18.08;100.00;100828.47;5088645;28;20410;-69
2023/08/25 02:00:09;;;;;;;14.13;9.05;;;;;;;18.10;100.00;100837.97;5088668;28;20075;-69
2023/08/25 02:02:34;;;;;;;14.40;8.82;;;;;;;18.13;100.00;100847.41;5089675;28;20032;-69
2023/08/25 02:05:00;;;;;;;16.65;8.98;;;;;;;18.14;100.00;100840.97;5089625;28;20069;-69
2023/08/25 02:07:25;;;;;;;14.40;8.73;;;;;;;18.12;100.00;100835.81;5089778;28;20036;-69
2023/08/25 02:09:53;;;;;;;18.73;10.30;;;;;;;18.10;100.00;100835.25;5089859;28;20032;-69
2023/08/25 02:12:18;;;;;;;15.75;8.05;;;;;;;18.07;100.00;100816.84;5089915;28;20032;-69
2023/08/25 02:14:44;;;;;;;13.15;8.35;;;;;;;18.13;100.00;100833.91;5088382;28;20080;-69
2023/08/25 02:17:10;;;;;;;14.43;8.32;;;;;;;18.17;100.00;100825.09;5089734;28;20051;-69
2023/08/25 02:19:35;;;;;;;12.93;8.02;;;;;;;18.16;100.00;100828.06;5089670;28;20034;-69
2023/08/25 02:22:00;;;;;;;18.02;10.35;;;;;;;18.15;100.00;100811.00;5089448;28;20064;-69
2023/08/25 02:24:26;;;;;;;14.38;8.35;;;;;;;18.20;100.00;100814.88;5088473;28;20528;-69
2023/08/25 02:26:51;;;;;;;13.43;8.18;;;;;;;18.23;100.00;100817.06;5089375;28;20417;-69
2023/08/25 02:29:16;;;;;;;13.32;7.82;;;;;;;18.20;100.00;100812.97;5089559;28;20121;-69
2023/08/25 02:31:42;;;;;;;15.75;8.80;;;;;;;18.22;100.00;100810.84;5089306;28;20109;-69
2023/08/25 02:34:07;;;;;;;15.85;8.68;;;;;;;18.23;100.00;100809.78;5089213;28;20414;-70
2023/08/25 02:36:32;;;;;;;15.60;9.35;;;;;;;18.31;100.00;100797.75;5089355;28;20016;-70
2023/08/25 02:38:58;;;;;;;17.15;8.85;;;;;;;18.31;100.00;100811.22;5090333;28;20028;-70
2023/08/25 02:41:23;;;;;;;13.38;8.35;;;;;;;18.32;100.00;100807.50;5091749;28;20360;-70
2023/08/25 02:43:48;;;;;;;17.15;9.82;;;;;;;18.36;100.00;100793.22;5087897;28;20028;-69
2023/08/25 02:46:14;;;;;;;14.20;8.88;;;;;;;18.35;100.00;100791.59;5089252;28;20098;-70
2023/08/25 02:48:39;;;;;;;15.23;8.77;;;;;;;18.36;100.00;100787.00;5089211;28;20035;-69
2023/08/25 02:51:04;;;;;;;15.18;8.95;;;;;;;18.36;100.00;100789.72;5089105;28;20032;-69
2023/08/25 02:53:30;;;;;;;17.30;10.10;;;;;;;18.35;100.00;100780.78;5089099;28;20613;-70
2023/08/25 02:55:55;;;;;;;17.65;10.50;;;;;;;18.38;100.00;100784.88;5088476;28;20032;-69
2023/08/25 02:58:20;;;;;;;18.15;10.20;;;;;;;18.41;100.00;100773.56;5087717;28;20035;-70
2023/08/25 03:00:47;;;;;;;14.15;8.85;;;;;;;18.40;100.00;100778.16;5088960;28;20093;-70
2023/08/25 03:03:12;;;;;;;15.73;9.50;;;;;;;18.44;100.00;100783.06;5089025;28;20127;-70
2023/08/25 03:05:38;;;;;;;18.10;10.25;;;;;;;18.44;100.00;100767.66;5087250;28;20050;-69
2023/08/25 03:08:04;;;;;;;18.58;10.82;;;;;;;18.44;100.00;100770.38;5069397;28;20446;-69
2023/08/25 03:10:30;;;;;;;18.88;11.60;;;;;;;18.47;100.00;100769.03;5069705;28;20033;-69
2023/08/25 03:12:55;;;;;;;15.80;10.43;;;;;;;18.45;100.00;100763.09;5069723;28;20036;-69
2023/08/25 03:15:20;;;;;;;20.00;11.23;;;;;;;18.45;100.00;100760.41;5068251;28;20067;-69
2023/08/25 03:17:46;;;;;;;17.15;10.18;;;;;;;18.47;100.00;100759.09;5069651;28;20036;-69
2023/08/25 03:20:11;;;;;;;19.70;10.85;;;;;;;18.48;100.00;100762.59;5069459;28;20515;-69
2023/08/25 03:22:36;;;;;;;19.13;11.57;;;;;;;18.47;100.00;100756.38;5069432;28;20032;-69
2023/08/25 03:25:02;;;;;;;18.15;10.68;;;;;;;18.47;100.00;100744.75;5069510;28;20032;-69
2023/08/25 03:27:28;;;;;;;17.65;10.32;;;;;;;18.51;100.00;100752.09;5069471;28;20025;-69
2023/08/25 03:29:53;;;;;;;19.67;10.30;;;;;;;18.50;100.00;100742.38;5069410;28;20396;-69
2023/08/25 03:32:19;;;;;;;19.50;10.82;;;;;;;18.49;100.00;100739.91;5069267;28;20078;-69
2023/08/25 03:34:44;;;;;;;20.52;10.55;;;;;;;18.50;100.00;100736.16;5068201;28;20028;-69
2023/08/25 03:37:11;;;;;;;19.05;11.05;;;;;;;18.49;100.00;100726.41;5069152;28;20082;-69
2023/08/25 03:39:37;;;;;;;19.02;10.15;;;;;;;18.48;100.00;100724.78;5068206;28;20397;-69
2023/08/25 03:42:02;;;;;;;17.05;10.32;;;;;;;18.49;100.00;100727.22;5069335;28;20033;-69
2023/08/25 03:44:28;;;;;;;19.77;11.05;;;;;;;18.50;100.00;100725.34;5068023;28;20118;-69
2023/08/25 03:46:53;;;;;;;20.05;12.65;;;;;;;18.53;100.00;100720.25;5069295;28;20041;-69
2023/08/25 03:49:18;;;;;;;22.70;12.27;;;;;;;18.54;100.00;100724.56;5069300;28;20032;-69
2023/08/25 03:51:44;;;;;;;18.30;11.98;;;;;;;18.57;100.00;100726.75;5069112;28;20027;-69
2023/08/25 03:54:11;;;;;;;17.88;11.45;;;;;;;18.57;100.00;100726.75;5069273;28;20036;-69
2023/08/25 03:56:36;;;;;;;19.75;11.10;;;;;;;18.55;100.00;100725.41;5069260;28;20025;-69
2023/08/25 03:59:02;;;;;;;19.48;11.05;;;;;;;18.57;100.00;100724.06;5068929;28;20412;-69
2023/08/25 04:01:27;;;;;;;19.27;11.55;;;;;;;18.58;100.00;100724.91;5069000;28;20037;-70
2023/08/25 04:03:52;;;;;;;21.85;12.40;;;;;;;18.59;100.00;100721.13;5069107;28;20036;-69
2023/08/25 04:06:18;;;;;;;21.60;14.23;;;;;;;18.56;100.00;100714.34;5068918;28;20040;-69
2023/08/25 04:08:43;;;;;;;21.95;12.50;;;;;;;18.58;100.00;100719.50;5072802;28;20024;-69
2023/08/25 04:11:08;;;;;;;20.38;13.45;;;;;;;18.57;100.00;100720.56;5072564;28;20027;-70
2023/08/25 04:13:34;;;;;;;21.30;12.73;;;;;;;18.57;100.00;100721.38;5072505;28;20124;-70
2023/08/25 04:16:01;;;;;;;22.75;13.25;;;;;;;18.58;100.00;100720.31;5071365;28;20035;-68
2023/08/25 04:18:27;;;;;;;24.10;13.52;;;;;;;18.59;100.00;100721.13;5072525;28;20043;-70
2023/08/25 04:20:52;;;;;;;23.27;13.43;;;;;;;18.59;100.00;100711.13;5072537;28;20388;-70
2023/08/25 04:23:18;;;;;;;23.30;15.20;;;;;;;18.58;100.00;100708.69;5072488;28;20032;-70
2023/08/25 04:25:43;;;;;;;21.92;13.85;;;;;;;18.59;100.00;100711.13;5072392;28;20033;-69
2023/08/25 04:28:09;;;;;;;24.05;14.35;;;;;;;18.58;100.00;100711.41;5072369;28;20311;-69
2023/08/25 04:30:35;;;;;;;23.38;14.02;;;;;;;18.53;100.00;100706.75;5072258;28;20086;-70
2023/08/25 04:33:00;;;;;;;25.63;14.73;;;;;;;18.55;100.00;100701.09;5072296;28;20032;-70
2023/08/25 04:35:26;;;;;;;37.42;22.42;;;;;;;18.56;100.00;100705.44;5072132;28;20020;-70
2023/08/25 04:37:51;;;;;;;43.35;24.42;;;;;;;18.56;100.00;100706.25;5070874;28;20040;-70
2023/08/25 04:40:17;;;;;;;39.10;24.38;;;;;;;18.53;100.00;100711.34;5070158;28;20081;-70
2023/08/25 04:42:43;;;;;;;37.83;25.52;;;;;;;18.51;100.00;100710.78;5071042;28;20040;-70
2023/08/25 04:45:10;;;;;;;43.95;27.17;;;;;;;18.46;100.00;100708.81;5071075;28;20529;-69
2023/08/25 04:47:35;;;;;;;40.25;24.80;;;;;;;18.47;100.00;100713.16;5069868;28;20041;-70
2023/08/25 04:50:03;;;;;;;40.13;25.23;;;;;;;18.47;100.00;100715.88;5071424;28;20028;-69
2023/08/25 04:52:29;;;;;;;42.78;27.73;;;;;;;18.38;100.00;100703.88;5071411;28;20460;-70
2023/08/25 04:54:55;;;;;;;37.47;22.80;;;;;;;18.45;100.00;100715.31;5090641;28;20411;-70
2023/08/25 04:57:20;;;;;;;29.85;18.77;;;;;;;18.47;100.00;100715.88;5090998;28;20043;-70
2023/08/25 04:59:45;;;;;;;27.05;16.15;;;;;;;18.47;100.00;100713.16;5091143;28;20039;-70
2023/08/25 05:02:11;;;;;;;26.55;16.50;;;;;;;18.48;100.00;100714.78;5090529;28;20119;-70
2023/08/25 05:04:36;;;;;;;26.45;14.90;;;;;;;18.49;100.00;100704.78;5089545;28;20044;-70
2023/08/25 05:07:02;;;;;;;22.83;12.95;;;;;;;18.49;100.00;100708.31;5090567;28;20032;-70
2023/08/25 05:09:28;;;;;;;22.77;14.82;;;;;;;18.48;100.00;100697.78;5090980;28;20031;-70
2023/08/25 05:11:53;;;;;;;26.42;17.33;;;;;;;18.51;100.00;100702.66;5090738;28;20035;-70
2023/08/25 05:14:18;;;;;;;24.40;15.30;;;;;;;18.45;100.00;100691.00;5093660;28;20100;-70
2023/08/25 05:16:44;;;;;;;23.83;14.45;;;;;;;18.46;100.00;100678.31;5089632;28;20055;-69
2023/08/25 05:19:11;;;;;;;25.20;15.38;;;;;;;18.53;100.00;100692.44;5088480;28;20068;-69
2023/08/25 05:21:37;;;;;;;23.95;14.20;;;;;;;18.50;100.00;100687.53;5080091;28;20043;-70
2023/08/25 05:24:20;;;;;;;23.70;14.70;;;;;;;18.52;100.00;100688.09;5071014;28;20028;-70
2023/08/25 05:26:53;;;;;;;27.40;17.13;;;;;;;18.52;100.00;100690.78;5090077;28;20036;-70
2023/08/25 05:29:26;;;;;;;28.30;16.67;;;;;;;18.51;100.00;100687.28;5090432;28;20024;-70
2023/08/25 05:31:51;;;;;;;24.15;16.60;;;;;;;18.50;100.00;100696.47;5090308;28;20497;-70
2023/08/25 05:34:17;;;;;;;27.77;17.13;;;;;;;18.49;100.00;100685.91;5090420;28;20026;-70
2023/08/25 05:36:43;;;;;;;34.45;20.10;;;;;;;18.46;100.00;100684.50;5090462;28;20040;-70
2023/08/25 05:39:09;;;;;;;31.60;16.42;;;;;;;18.47;100.00;100693.44;5083451;28;20549;-70
2023/08/25 05:41:35;;;;;;;30.73;18.13;;;;;;;18.48;100.00;100690.47;5089802;28;20028;-69
2023/08/25 05:44:01;;;;;;;31.80;19.20;;;;;;;18.44;100.00;100667.75;5090057;28;20385;-70
2023/08/25 05:46:28;;;;;;;29.15;16.55;;;;;;;18.53;100.00;100678.94;5090052;28;20471;-70
2023/08/25 05:48:53;;;;;;;30.50;19.35;;;;;;;18.55;100.00;100688.41;5090099;28;20040;-70
2023/08/25 05:51:19;;;;;;;28.55;17.55;;;;;;;18.56;100.00;100681.13;5090001;28;20470;-70
2023/08/25 05:53:44;;;;;;;28.52;19.30;;;;;;;18.54;100.00;100681.34;5089994;28;20040;-70
2023/08/25 05:56:10;;;;;;;31.40;15.25;;;;;;;18.55;100.00;100682.19;5089917;28;20024;-70
2023/08/25 05:58:35;;;;;;;25.58;14.45;;;;;;;18.60;100.00;100685.75;5088418;28;20490;-70
2023/08/25 06:01:00;;;;;;;33.08;17.75;;;;;;;18.64;100.00;100674.44;5070365;28;20020;-70
2023/08/25 06:03:26;;;;;;;25.08;17.15;;;;;;;18.66;100.00;100666.91;5070435;28;20446;-70
2023/08/25 06:05:52;;;;;;;25.77;16.08;;;;;;;18.70;100.00;100663.41;5070311;28;20040;-70
2023/08/25 06:08:20;;;;;;;28.23;17.30;;;;;;;18.71;100.00;100675.06;5089327;28;20035;-70
2023/08/25 06:10:46;;;;;;;25.92;15.65;;;;;;;18.73;100.00;100676.44;5089589;28;20540;-70
2023/08/25 06:13:12;;;;;;;26.58;16.52;;;;;;;18.71;100.00;100678.56;5089646;28;20077;-70
2023/08/25 06:15:38;;;;;;;25.58;17.35;;;;;;;18.71;100.00;100685.88;5089560;28;20027;-70
2023/08/25 06:18:04;;;;;;;28.23;16.33;;;;;;;18.69;100.00;100680.72;5089398;28;20364;-70
2023/08/25 06:20:32;;;;;;;24.40;14.63;;;;;;;18.66;100.00;100681.22;5089608;28;20039;-70
2023/08/25 06:22:58;;;;;;;26.27;17.60;;;;;;;18.66;100.00;100686.63;5089475;28;20031;-69
2023/08/25 06:25:23;;;;;;;27.88;16.83;;;;;;;18.65;100.00;100678.75;5089470;28;20394;-69
2023/08/25 06:27:49;;;;;;;24.20;14.68;;;;;;;18.66;100.00;100692.03;5088474;28;20116;-69
2023/08/25 06:30:16;;;;;;;26.40;17.00;;;;;;;18.59;100.00;100699.50;5087627;28;20024;-69
2023/08/25 06:32:42;;;;;;;27.10;16.10;;;;;;;18.62;100.00;100707.91;5089692;28;20058;-69
2023/08/25 06:35:08;;;;;;;27.25;17.40;;;;;;;18.61;100.00;100721.69;5089219;28;20042;-69
2023/08/25 06:37:33;;;;;;;24.90;15.75;;;;;;;18.59;100.00;100704.91;5087869;28;20036;-69
2023/08/25 06:39:58;;;;;;;26.10;15.70;;;;;;;18.61;100.00;100713.59;5089029;28;20530;-69
2023/08/25 06:42:24;;;;;;;24.95;15.43;;;;;;;18.57;100.00;100701.66;5089054;28;20117;-69
2023/08/25 06:44:49;;;;;;;25.88;15.93;;;;;;;18.58;100.00;100681.69;5087540;28;20036;-69
2023/08/25 06:47:15;;;;;;;24.77;16.25;;;;;;;18.56;100.00;100675.72;5088208;28;20043;-69
2023/08/25 06:49:40;;;;;;;24.63;15.30;;;;;;;18.54;100.00;100673.25;5087965;28;20093;-69
2023/08/25 06:52:06;;;;;;;25.55;16.23;;;;;;;18.53;100.00;100670.81;5087078;28;20040;-70
2023/08/25 06:54:32;;;;;;;24.88;16.83;;;;;;;18.53;100.00;100665.44;5088752;28;20125;-69
2023/08/25 06:56:58;;;;;;;27.58;16.05;;;;;;;18.57;100.00;100697.06;5088988;28;20024;-69
2023/08/25 06:59:23;;;;;;;24.92;17.02;;;;;;;18.54;100.00;100691.34;5088416;28;20024;-69
2023/08/25 07:01:49;;;;;;;27.95;18.70;;;;;;;18.51;100.00;100667.56;5087925;28;20036;-69
2023/08/25 07:04:15;;;;;;;27.40;17.15;;;;;;;18.50;100.00;100663.25;5083784;28;20039;-69
2023/08/25 07:06:40;;;;;;;26.98;18.13;;;;;;;18.48;100.00;100651.88;5088524;28;20062;-69
2023/08/25 07:09:06;;;;;;;25.70;17.02;;;;;;;18.49;100.00;100648.88;5088786;28;20052;-70
2023/08/25 07:11:32;;;;;;;28.70;18.88;;;;;;;18.49;100.00;100629.19;5087735;28;20131;-69
2023/08/25 07:13:58;;;;;;;27.10;17.25;;;;;;;18.47;100.00;100615.94;5088913;28;20051;-69
2023/08/25 07:16:24;;;;;;;28.98;20.10;;;;;;;18.41;100.00;100608.84;5088721;28;20050;-69
2023/08/25 07:18:50;;;;;;;27.20;17.80;;;;;;;18.48;100.00;100614.06;5069373;28;20064;-69
2023/08/25 07:21:15;;;;;;;26.90;17.33;;;;;;;18.47;100.00;100620.50;5069362;28;20029;-69
2023/08/25 07:23:41;;;;;;;28.48;16.42;;;;;;;18.51;100.00;100627.03;5067950;28;20040;-69
2023/08/25 07:26:07;;;;;;;26.20;16.88;;;;;;;18.52;100.00;100636.75;5069243;28;20414;-69
2023/08/25 07:28:32;;;;;;;27.73;17.00;;;;;;;18.51;100.00;100619.75;5069255;28;20517;-69
2023/08/25 07:30:59;;;;;;;26.10;16.48;;;;;;;18.53;100.00;100617.63;5071075;28;20102;-69
2023/08/25 07:33:25;;;;;;;25.48;16.60;;;;;;;18.56;100.00;100646.00;5078021;28;20555;-70
2023/08/25 07:35:50;;;;;;;25.67;17.75;;;;;;;18.55;100.00;100666.00;5068504;28;20035;-69
2023/08/25 07:38:15;;;;;;;25.85;16.63;;;;;;;18.55;100.00;100666.81;5068833;28;20024;-69
2023/08/25 07:40:42;;;;;;;24.77;16.30;;;;;;;18.58;100.00;100681.69;5069071;28;20028;-68
2023/08/25 07:43:07;;;;;;;23.00;14.18;;;;;;;18.60;100.00;100704.69;5071952;28;20104;-71
2023/08/25 07:45:33;;;;;;;26.00;15.75;;;;;;;18.57;100.00;100737.56;5072176;28;20024;-70
2023/08/25 07:48:01;;;;;;;23.58;15.82;;;;;;;18.54;100.00;100718.38;5071933;28;20024;-70
2023/08/25 07:50:30;;;;;;;28.98;18.13;;;;;;;18.46;100.00;100670.19;5072618;28;20048;-71
2023/08/25 07:52:57;;;;;;;31.83;17.77;;;;;;;18.44;100.00;100669.63;5072879;28;20037;-70
2023/08/25 07:55:23;;;;;;;27.88;17.15;;;;;;;18.42;100.00;100683.41;5072559;28;20048;-70
2023/08/25 07:57:48;;;;;;;24.90;16.38;;;;;;;18.38;100.00;100691.19;5072207;28;20082;-70
2023/08/25 08:00:17;;;;;;;26.33;14.90;;;;;;;18.39;100.00;100692.81;5072781;28;20036;-70
2023/08/25 08:02:44;;;;;;;25.65;17.30;;;;;;;18.42;100.00;100701.47;5071579;28;20040;-70
2023/08/25 08:05:10;;;;;;;25.27;16.30;;;;;;;18.35;100.00;100697.09;5073189;28;20048;-71
2023/08/25 08:07:36;;;;;;;24.52;14.95;;;;;;;18.39;100.00;100684.72;5072331;28;20040;-69
2023/08/25 08:10:02;;;;;;;24.25;15.55;;;;;;;18.37;100.00;100694.16;5071767;28;20991;-69
2023/08/25 08:12:27;;;;;;;25.13;15.30;;;;;;;18.38;100.00;100704.69;5072200;28;20408;-69
2023/08/25 08:14:52;;;;;;;23.20;15.45;;;;;;;18.43;100.00;100712.03;5072017;28;20086;-69
2023/08/25 08:17:19;;;;;;;25.08;16.38;;;;;;;18.42;100.00;100709.56;5082049;28;20115;-69
2023/08/25 08:19:44;;;;;;;23.90;15.50;;;;;;;18.48;100.00;100730.19;5082131;28;20025;-69
2023/08/25 08:22:10;;;;;;;22.75;14.00;;;;;;;18.46;100.00;100730.44;5083111;28;20028;-70
2023/08/25 08:24:36;;;;;;;20.98;12.38;;;;;;;18.47;100.00;100732.06;5082588;28;20105;-69
2023/08/25 08:27:01;;;;;;;19.50;12.15;;;;;;;18.46;100.00;100716.91;5072281;28;20427;-69
2023/08/25 08:29:27;;;;;;;22.40;14.13;;;;;;;18.46;100.00;100694.50;5072314;28;20040;-69
2023/08/25 08:31:55;;;;;;;20.33;11.23;;;;;;;18.43;100.00;100670.72;5072195;28;20050;-69
2023/08/25 08:34:21;;;;;;;18.83;11.23;;;;;;;18.43;100.00;100690.44;5072241;28;20497;-69
2023/08/25 08:36:47;;;;;;;17.65;10.20;;;;;;;18.44;100.00;100688.53;5072207;28;20108;-69
2023/08/25 08:39:12;;;;;;;16.65;10.65;;;;;;;18.42;100.00;100698.75;5072153;28;20112;-69
2023/08/25 08:41:40;;;;;;;17.77;10.73;;;;;;;18.38;100.00;100699.28;5072072;28;20132;-69
2023/08/25 08:44:10;;;;;;;18.85;11.35;;;;;;;18.40;100.00;100704.44;5091288;28;20082;-69
2023/08/25 08:46:36;;;;;;;16.92;11.00;;;;;;;18.42;100.00;100706.88;5091297;28;20016;-69
2023/08/25 08:49:03;;;;;;;17.83;9.80;;;;;;;18.40;100.00;100710.66;5091243;28;20036;-69
2023/08/25 08:51:30;;;;;;;16.25;9.15;;;;;;;18.41;100.00;100722.25;5091230;28;20032;-69
2023/08/25 08:53:56;;;;;;;16.58;8.75;;;;;;;18.38;100.00;100718.19;5090085;28;20192;-69
2023/08/25 08:56:22;;;;;;;13.60;8.27;;;;;;;18.36;100.00;100714.09;5091198;28;20039;-69
2023/08/25 08:58:48;;;;;;;13.95;9.13;;;;;;;18.36;100.00;100714.91;5091126;28;20740;-69
2023/08/25 09:01:15;;;;;;;14.82;10.00;;;;;;;18.35;100.00;100702.50;5091228;28;20028;-69
2023/08/25 09:03:42;;;;;;;14.50;9.10;;;;;;;18.33;100.00;100709.22;5090974;28;20475;-70
2023/08/25 09:06:07;;;;;;;15.02;9.10;;;;;;;18.33;100.00;100718.13;5090984;28;20053;-69
2023/08/25 09:08:36;;;;;;;15.80;9.75;;;;;;;18.29;100.00;100721.59;5090938;28;20494;-69
2023/08/25 09:11:04;;;;;;;17.38;9.85;;;;;;;18.27;100.00;100729.94;5089488;28;20036;-69
2023/08/25 09:13:33;;;;;;;15.88;9.20;;;;;;;18.29;100.00;100729.69;5090321;28;20340;-69
2023/08/25 09:16:00;;;;;;;16.25;9.48;;;;;;;18.29;100.00;100718.91;5089861;28;20086;-69
2023/08/25 09:18:34;;;;;;;18.17;11.18;;;;;;;18.28;100.00;100703.75;5090349;28;20032;-69
2023/08/25 09:21:03;;;;;;;15.75;10.25;;;;;;;18.29;100.00;100691.91;5090639;28;20085;-69
2023/08/25 09:23:29;;;;;;;16.27;10.35;;;;;;;18.29;100.00;100689.19;5090664;28;20024;-69
2023/08/25 09:25:56;;;;;;;19.25;11.90;;;;;;;18.31;100.00;100698.69;5090565;28;20036;-69
2023/08/25 09:28:24;;;;;;;20.73;11.10;;;;;;;18.32;100.00;100699.47;5090548;28;20110;-69
2023/08/25 09:30:49;;;;;;;19.48;12.88;;;;;;;18.36;100.00;100700.59;5090494;28;20130;-69
2023/08/25 09:33:15;;;;;;;16.02;10.63;;;;;;;18.38;100.00;100671.47;5090379;28;20463;-69
2023/08/25 09:35:41;;;;;;;20.58;12.48;;;;;;;18.40;100.00;100659.34;5090314;28;20417;-69
2023/08/25 09:38:10;;;;;;;16.02;10.63;;;;;;;18.48;100.00;100673.47;5090198;28;20032;-70
2023/08/25 09:40:35;;;;;;;16.65;10.45;;;;;;;18.53;100.00;100662.72;5090368;28;20036;-69
2023/08/25 09:43:03;;;;;;;19.55;11.18;;;;;;;18.55;100.00;100671.41;5090254;28;20105;-70
2023/08/25 09:45:29;;;;;;;15.77;10.55;;;;;;;18.58;100.00;100666.28;5089995;28;20039;-69
2023/08/25 09:48:08;;;;;;;18.77;11.63;;;;;;;18.70;100.00;100676.94;5090139;28;20052;-69
2023/08/25 09:50:43;;;;;;;20.23;11.15;;;;;;;18.74;100.00;100679.97;5090053;28;20036;-70
2023/08/25 09:53:13;;;;;;;17.40;10.05;;;;;;;18.78;100.00;100683.78;5089855;28;20053;-70
2023/08/25 09:55:39;;;;;;;17.65;9.60;;;;;;;18.78;100.00;100690.00;5089887;28;20420;-70
2023/08/25 09:58:06;;;;;;;15.05;9.13;;;;;;;18.78;100.00;100684.59;5089898;28;20024;-69
2023/08/25 10:00:37;;;;;;;17.27;10.18;;;;;;;18.80;100.00;100693.28;5089977;28;20125;-69
2023/08/25 10:03:05;;;;;;;17.00;10.43;;;;;;;18.77;100.00;100687.56;5089882;28;20024;-69
2023/08/25 10:05:34;;;;;;;18.13;10.95;;;;;;;18.76;100.00;100692.16;5089166;28;20071;-69
2023/08/25 10:08:00;;;;;;;15.80;10.38;;;;;;;18.76;100.00;100694.88;5089746;28;20065;-69
2023/08/25 10:10:29;;;;;;;15.52;9.40;;;;;;;18.72;100.00;100688.31;5089662;28;20039;-70
2023/08/25 10:12:59;;;;;;;17.55;10.85;;;;;;;18.78;100.00;100700.00;5089577;28;20039;-69
2023/08/25 10:15:30;;;;;;;16.88;11.02;;;;;;;18.84;100.00;100701.72;5089514;28;20087;-70
2023/08/25 10:18:03;;;;;;;16.73;11.32;;;;;;;18.91;100.00;100696.88;5089600;28;20115;-69
2023/08/25 10:20:30;;;;;;;19.67;10.95;;;;;;;18.99;100.00;100709.97;5085364;28;20058;-69
2023/08/25 10:22:57;;;;;;;17.60;11.00;;;;;;;19.07;100.00;100707.84;5077856;28;20048;-69
2023/08/25 10:25:28;;;;;;;16.95;10.50;;;;;;;19.10;100.00;100720.84;5089100;28;20085;-69
2023/08/25 10:27:55;;;;;;;16.27;9.48;;;;;;;19.14;100.00;100716.56;5089353;28;20028;-69
2023/08/25 10:30:21;;;;;;;18.35;10.82;;;;;;;19.12;100.00;100710.59;5089221;28;20115;-69
2023/08/25 10:32:50;;;;;;;18.80;10.02;;;;;;;19.20;100.00;100705.56;5089223;28;20138;-69
2023/08/25 10:35:16;;;;;;;18.83;11.00;;;;;;;19.26;100.00;100701.00;5089448;28;20020;-69
2023/08/25 10:37:41;;;;;;;20.48;11.30;;;;;;;19.41;100.00;100708.41;5089132;28;20483;-69
2023/08/25 10:40:11;;;;;;;19.92;11.98;;;;;;;19.41;100.00;100711.94;5089296;28;20031;-69
2023/08/25 10:42:36;;;;;;;19.00;11.45;;;;;;;19.51;100.00;100716.59;5089310;28;20040;-69
2023/08/25 10:45:06;;;;;;;20.33;12.10;;;;;;;19.62;100.00;100703.94;5084471;28;20029;-69
2023/08/25 10:47:31;;;;;;;18.05;11.25;;;;;;;19.62;100.00;100707.50;5069443;28;20528;-69
2023/08/25 10:50:03;;;;;;;20.67;12.38;;;;;;;19.61;100.00;100713.16;5087952;28;20034;-69
2023/08/25 10:52:29;;;;;;;;;;;;;;;19.66;100.00;100719.44;5089213;28;20027;-69
2023/08/25 10:54:54;;;;;;;20.05;10.80;;;;;;;19.52;100.00;100722.81;5073183;28;19985;-66
2023/08/25 10:57:31;;;;;;;17.65;10.73;;;;;;;19.44;100.00;100727.66;5069052;28;20024;-70
2023/08/25 11:00:27;;;;;;;17.85;10.30;;;;;;;19.37;100.00;100727.03;5067677;28;20057;-67
2023/08/25 11:02:53;;;;;;;20.02;12.30;;;;;;;19.25;100.00;100726.38;5069949;28;20040;-67